Time;durP1;ratioP1;P1;durP2;ratioP2;P2;SDS_P1;SDS_P2;PMS_P1;PMS_P2;Temp;Humidity;BMP_temperature;BMP_pressure;BME280_temperature;BME280_humidity;BME280_pressure;Samples;Min_cycle;Max_cycle;Signal;HPM_P1;HPM_P2
2023/11/28 00:01:54;;;;;;;7.85;4.53;;;;;;;;;;5064085;28;20033;-52
2023/11/28 00:04:23;;;;;;;4.32;3.92;;;;;;;;;;5063575;28;20033;-52
2023/11/28 00:06:52;;;;;;;5.43;3.47;;;;;;;;;;5063794;28;20029;-55
2023/11/28 00:09:19;;;;;;;5.63;4.00;;;;;;;;;;5063363;28;20052;-52
2023/11/28 00:11:45;;;;;;;7.22;3.50;;;;;;;;;;5063928;28;20033;-51
2023/11/28 00:14:12;;;;;;;8.30;3.78;;;;;;;;;;5063383;28;20059;-54
2023/11/28 00:16:39;;;;;;;5.22;3.50;;;;;;;;;;5063969;28;20088;-53
2023/11/28 00:19:05;;;;;;;6.32;3.45;;;;;;;;;;5063404;28;20028;-53
2023/11/28 00:21:32;;;;;;;6.55;3.58;;;;;;;;;;5063768;28;20289;-55
2023/11/28 00:23:58;;;;;;;6.30;3.15;;;;;;;;;;5063543;28;20041;-53
2023/11/28 00:26:25;;;;;;;5.40;2.90;;;;;;;;;;5064075;28;20028;-53
2023/11/28 00:28:52;;;;;;;6.35;2.95;;;;;;;;;;5062248;28;20042;-52
2023/11/28 00:31:20;;;;;;;5.57;2.65;;;;;;;;;;5063727;28;20095;-52
2023/11/28 00:33:47;;;;;;;4.90;2.72;;;;;;;;;;5063610;28;20080;-53
2023/11/28 00:36:17;;;;;;;4.25;2.30;;;;;;;;;;5063712;28;20017;-54
2023/11/28 00:38:43;;;;;;;3.95;2.30;;;;;;;;;;5063380;28;20079;-53
2023/11/28 00:41:11;;;;;;;3.22;2.05;;;;;;;;;;5063800;28;20092;-51
2023/11/28 00:43:39;;;;;;;5.78;2.25;;;;;;;;;;5063520;28;20092;-57
2023/11/28 00:46:06;;;;;;;2.97;1.98;;;;;;;;;;5062357;28;20210;-54
2023/11/28 00:48:33;;;;;;;3.58;2.03;;;;;;;;;;5063167;28;20264;-52
2023/11/28 00:50:59;;;;;;;4.60;2.28;;;;;;;;;;5063459;28;20032;-53
2023/11/28 00:53:26;;;;;;;2.95;2.00;;;;;;;;;;5063388;28;20072;-53
2023/11/28 00:55:53;;;;;;;3.58;2.10;;;;;;;;;;5064066;28;20028;-53
2023/11/28 00:58:19;;;;;;;4.10;2.15;;;;;;;;;;5063238;28;20077;-54
2023/11/28 01:00:46;;;;;;;4.55;2.00;;;;;;;;;;5062991;28;20384;-52
2023/11/28 01:03:13;;;;;;;7.15;2.00;;;;;;;;;;5063103;28;20033;-53
2023/11/28 01:05:39;;;;;;;4.75;2.00;;;;;;;;;;5063179;28;20025;-55
2023/11/28 01:08:06;;;;;;;3.38;1.90;;;;;;;;;;5062957;28;20404;-54
2023/11/28 01:10:33;;;;;;;3.67;2.00;;;;;;;;;;5065562;28;20044;-51
2023/11/28 01:12:59;;;;;;;3.28;2.13;;;;;;;;;;5066913;28;20067;-52
2023/11/28 01:15:26;;;;;;;5.55;1.98;;;;;;;;;;5066705;28;20339;-53
2023/11/28 01:17:52;;;;;;;3.28;2.03;;;;;;;;;;5065439;28;20028;-49
2023/11/28 01:20:19;;;;;;;5.95;2.35;;;;;;;;;;5066414;28;20036;-42
2023/11/28 01:22:46;;;;;;;8.32;2.42;;;;;;;;;;5066501;28;20029;-46
2023/11/28 01:25:13;;;;;;;6.30;2.20;;;;;;;;;;5066277;28;20047;-43
2023/11/28 01:27:40;;;;;;;5.25;2.20;;;;;;;;;;5066646;28;20028;-47
2023/11/28 01:30:07;;;;;;;6.00;2.20;;;;;;;;;;5066005;28;20032;-42
2023/11/28 01:32:33;;;;;;;8.05;2.35;;;;;;;;;;5066516;28;20316;-43
2023/11/28 01:35:00;;;;;;;6.53;2.30;;;;;;;;;;5077702;28;20058;-44
2023/11/28 01:37:26;;;;;;;5.13;2.30;;;;;;;;;;5063048;28;20037;-40
2023/11/28 01:39:53;;;;;;;4.63;2.15;;;;;;;;;;5067359;28;20079;-46
2023/11/28 01:42:20;;;;;;;5.53;2.40;;;;;;;;;;5081933;28;20040;-49
2023/11/28 01:44:48;;;;;;;3.17;2.00;;;;;;;;;;5061806;28;20348;-48
2023/11/28 01:47:14;;;;;;;7.25;2.22;;;;;;;;;;5071643;28;20091;-45
2023/11/28 01:49:41;;;;;;;11.85;2.47;;;;;;;;;;5061329;28;20017;-41
2023/11/28 01:52:10;;;;;;;3.72;2.22;;;;;;;;;;5065578;28;20094;-44
2023/11/28 01:54:36;;;;;;;8.40;2.53;;;;;;;;;;5059026;28;20112;-44
2023/11/28 01:57:03;;;;;;;6.00;2.40;;;;;;;;;;5047032;28;20096;-42
2023/11/28 01:59:32;;;;;;;3.83;1.90;;;;;;;;;;5058223;28;20036;-46
2023/11/28 02:01:59;;;;;;;4.93;1.83;;;;;;;;;;5056469;28;20071;-47
2023/11/28 02:04:25;;;;;;;6.35;2.17;;;;;;;;;;5070062;28;20021;-47
2023/11/28 02:06:52;;;;;;;3.30;2.10;;;;;;;;;;5075170;28;20309;-42
2023/11/28 02:09:19;;;;;;;4.53;1.90;;;;;;;;;;5080568;28;20028;-47
2023/11/28 02:11:46;;;;;;;3.38;1.83;;;;;;;;;;5065768;28;20216;-41
2023/11/28 02:14:14;;;;;;;5.50;2.17;;;;;;;;;;5055999;28;20321;-44
2023/11/28 02:16:40;;;;;;;5.60;2.10;;;;;;;;;;5062500;28;20033;-48
2023/11/28 02:19:07;;;;;;;6.97;2.47;;;;;;;;;;5064114;28;20224;-44
2023/11/28 02:21:34;;;;;;;3.92;2.10;;;;;;;;;;5068851;28;20033;-45
2023/11/28 02:24:02;;;;;;;3.78;2.00;;;;;;;;;;5064011;28;20166;-42
2023/11/28 02:26:29;;;;;;;2.60;2.08;;;;;;;;;;5065245;28;20084;-42
2023/11/28 02:28:56;;;;;;;4.25;2.03;;;;;;;;;;5060209;28;20025;-42
2023/11/28 02:31:23;;;;;;;10.70;2.30;;;;;;;;;;5064306;28;20365;-43
2023/11/28 02:33:51;;;;;;;6.32;2.35;;;;;;;;;;5064258;28;20039;-45
2023/11/28 02:36:21;;;;;;;5.13;1.90;;;;;;;;;;5064477;28;20182;-46
2023/11/28 02:38:48;;;;;;;4.68;2.00;;;;;;;;;;5060618;28;20019;-43
2023/11/28 02:41:15;;;;;;;7.97;2.20;;;;;;;;;;5062091;28;20021;-41
2023/11/28 02:43:42;;;;;;;4.07;2.63;;;;;;;;;;5045553;28;20247;-42
2023/11/28 02:46:08;;;;;;;5.90;2.50;;;;;;;;;;5057717;28;20035;-42
2023/11/28 02:48:35;;;;;;;6.00;2.75;;;;;;;;;;5063379;28;20024;-45
2023/11/28 02:51:02;;;;;;;5.00;3.00;;;;;;;;;;5067221;28;20029;-43
2023/11/28 02:53:28;;;;;;;7.57;3.10;;;;;;;;;;5069494;28;20036;-47
2023/11/28 02:55:55;;;;;;;6.38;2.88;;;;;;;;;;5069411;28;20021;-42
2023/11/28 02:58:22;;;;;;;4.97;3.05;;;;;;;;;;5067082;28;20209;-47
2023/11/28 03:00:48;;;;;;;5.38;3.05;;;;;;;;;;5064482;28;20065;-43
2023/11/28 03:03:15;;;;;;;6.80;3.67;;;;;;;;;;5069340;28;20031;-43
2023/11/28 03:05:43;;;;;;;6.00;3.95;;;;;;;;;;5083039;28;20036;-44
2023/11/28 03:08:10;;;;;;;5.57;3.67;;;;;;;;;;5082832;28;20236;-46
2023/11/28 03:10:37;;;;;;;5.70;3.40;;;;;;;;;;5082635;28;20047;-41
2023/11/28 03:13:03;;;;;;;7.60;3.47;;;;;;;;;;5082856;28;20440;-42
2023/11/28 03:15:30;;;;;;;5.22;3.20;;;;;;;;;;5082837;28;20024;-43
2023/11/28 03:18:00;;;;;;;12.48;3.60;;;;;;;;;;5082820;28;20043;-43
2023/11/28 03:20:27;;;;;;;5.70;3.13;;;;;;;;;;5083754;28;20072;-43
2023/11/28 03:22:54;;;;;;;6.50;2.92;;;;;;;;;;5060712;28;20032;-41
2023/11/28 03:25:21;;;;;;;11.55;3.15;;;;;;;;;;5044702;28;20025;-47
2023/11/28 03:27:47;;;;;;;5.07;2.90;;;;;;;;;;5044320;28;20034;-42
2023/11/28 03:30:14;;;;;;;5.65;2.90;;;;;;;;;;5044008;28;20048;-44
2023/11/28 03:32:41;;;;;;;6.63;2.67;;;;;;;;;;5043688;28;20022;-46
2023/11/28 03:35:08;;;;;;;7.28;3.35;;;;;;;;;;5044231;28;20033;-43
2023/11/28 03:37:34;;;;;;;8.02;4.80;;;;;;;;;;5044071;28;20025;-43
2023/11/28 03:40:01;;;;;;;10.90;5.65;;;;;;;;;;5044174;28;20036;-43
2023/11/28 03:42:28;;;;;;;8.63;5.60;;;;;;;;;;5044095;28;20337;-42
2023/11/28 03:44:54;;;;;;;10.48;6.13;;;;;;;;;;5043785;28;20045;-43
2023/11/28 03:47:21;;;;;;;8.82;5.80;;;;;;;;;;5044492;28;20029;-42
2023/11/28 03:49:48;;;;;;;9.77;6.63;;;;;;;;;;5043827;28;20033;-43
2023/11/28 03:52:15;;;;;;;16.33;8.35;;;;;;;;;;5043697;28;20388;-46
2023/11/28 03:54:41;;;;;;;16.83;8.60;;;;;;;;;;5044107;28;20080;-43
2023/11/28 03:57:08;;;;;;;18.60;9.70;;;;;;;;;;5044247;28;20034;-40
2023/11/28 03:59:35;;;;;;;16.83;9.63;;;;;;;;;;5042415;28;20049;-42
2023/11/28 04:02:04;;;;;;;23.23;10.85;;;;;;;;;;5044041;28;20095;-50
2023/11/28 04:04:30;;;;;;;18.65;11.82;;;;;;;;;;5043851;28;20093;-43
2023/11/28 04:06:57;;;;;;;23.92;13.30;;;;;;;;;;5044120;28;20036;-43
2023/11/28 04:09:24;;;;;;;23.40;13.93;;;;;;;;;;5043892;28;20063;-47
2023/11/28 04:11:53;;;;;;;26.05;14.95;;;;;;;;;;5043626;28;20037;-48
2023/11/28 04:14:19;;;;;;;23.63;14.80;;;;;;;;;;5043374;28;20333;-43
2023/11/28 04:16:47;;;;;;;24.60;14.05;;;;;;;;;;5044153;28;20025;-45
2023/11/28 04:19:14;;;;;;;23.10;14.88;;;;;;;;;;5043525;28;20029;-44
2023/11/28 04:21:41;;;;;;;22.17;13.77;;;;;;;;;;5043956;28;20052;-45
2023/11/28 04:24:08;;;;;;;20.10;12.32;;;;;;;;;;5043703;28;20021;-44
2023/11/28 04:26:34;;;;;;;25.25;12.73;;;;;;;;;;5044037;28;20033;-43
2023/11/28 04:29:01;;;;;;;19.90;11.75;;;;;;;;;;5043574;28;20080;-43
2023/11/28 04:31:28;;;;;;;21.90;12.45;;;;;;;;;;5043543;28;20089;-47
2023/11/28 04:33:54;;;;;;;23.92;11.27;;;;;;;;;;5043586;28;20053;-45
2023/11/28 04:36:21;;;;;;;22.38;11.18;;;;;;;;;;5043346;28;20048;-42
2023/11/28 04:38:48;;;;;;;20.90;10.90;;;;;;;;;;5043783;28;20328;-43
2023/11/28 04:41:15;;;;;;;16.58;10.38;;;;;;;;;;5043779;28;20041;-45
2023/11/28 04:43:41;;;;;;;18.23;10.15;;;;;;;;;;5044506;28;20329;-48
2023/11/28 04:46:08;;;;;;;15.95;9.50;;;;;;;;;;5047665;28;20025;-49
2023/11/28 04:48:35;;;;;;;16.15;9.13;;;;;;;;;;5047219;28;20071;-46
2023/11/28 04:51:02;;;;;;;13.85;8.35;;;;;;;;;;5047216;28;20096;-51
2023/11/28 04:53:29;;;;;;;16.58;8.00;;;;;;;;;;5047292;28;20014;-45
2023/11/28 04:55:55;;;;;;;17.95;7.88;;;;;;;;;;5047212;28;20029;-47
2023/11/28 04:58:22;;;;;;;12.32;6.85;;;;;;;;;;5047004;28;20028;-56
2023/11/28 05:00:50;;;;;;;10.35;6.68;;;;;;;;;;5047242;28;20053;-47
2023/11/28 05:03:17;;;;;;;13.40;6.97;;;;;;;;;;5047000;28;20029;-54
2023/11/28 05:05:44;;;;;;;10.52;5.72;;;;;;;;;;5046993;28;20029;-46
2023/11/28 05:08:10;;;;;;;8.15;5.10;;;;;;;;;;5047262;28;20229;-42
2023/11/28 05:10:37;;;;;;;9.98;5.43;;;;;;;;;;5046810;28;20222;-45
2023/11/28 05:13:04;;;;;;;9.20;5.28;;;;;;;;;;5046790;28;20041;-45
2023/11/28 05:15:31;;;;;;;7.53;4.47;;;;;;;;;;5046789;28;20021;-47
2023/11/28 05:17:58;;;;;;;10.50;4.97;;;;;;;;;;5046663;28;20025;-48
2023/11/28 05:20:25;;;;;;;13.77;4.50;;;;;;;;;;5046646;28;20036;-47
2023/11/28 05:22:51;;;;;;;10.90;4.40;;;;;;;;;;5046597;28;20084;-42
2023/11/28 05:25:18;;;;;;;6.75;4.38;;;;;;;;;;5046687;28;20116;-43
2023/11/28 05:27:45;;;;;;;9.32;4.43;;;;;;;;;;5046717;28;20089;-41
2023/11/28 05:30:12;;;;;;;10.73;3.90;;;;;;;;;;5046234;28;20059;-44
2023/11/28 05:32:38;;;;;;;8.30;3.53;;;;;;;;;;5046677;28;20325;-45
2023/11/28 05:35:05;;;;;;;5.57;3.28;;;;;;;;;;5046403;28;20037;-50
2023/11/28 05:37:33;;;;;;;5.57;2.92;;;;;;;;;;5046188;28;20025;-46
2023/11/28 05:40:03;;;;;;;7.47;3.38;;;;;;;;;;5046337;28;20034;-48
2023/11/28 05:42:30;;;;;;;7.07;2.85;;;;;;;;;;5046241;28;20044;-45
2023/11/28 05:44:57;;;;;;;6.55;3.05;;;;;;;;;;5046151;28;20032;-46
2023/11/28 05:47:23;;;;;;;5.65;2.33;;;;;;;;;;5046349;28;20398;-43
2023/11/28 05:49:50;;;;;;;5.05;2.30;;;;;;;;;;5045901;28;20222;-43
2023/11/28 05:52:17;;;;;;;3.63;2.35;;;;;;;;;;5046433;28;20205;-46
2023/11/28 05:54:44;;;;;;;6.07;2.40;;;;;;;;;;5045649;28;20053;-42
2023/11/28 05:57:10;;;;;;;4.85;2.45;;;;;;;;;;5046171;28;20032;-42
2023/11/28 05:59:37;;;;;;;4.03;2.50;;;;;;;;;;5045630;28;20276;-44
2023/11/28 06:02:04;;;;;;;7.18;2.20;;;;;;;;;;5046388;28;20044;-49
2023/11/28 06:04:31;;;;;;;5.07;2.35;;;;;;;;;;5045821;28;20310;-48
2023/11/28 06:06:58;;;;;;;5.15;2.00;;;;;;;;;;5046061;28;20316;-46
2023/11/28 06:09:25;;;;;;;6.00;2.13;;;;;;;;;;5045730;28;20028;-48
2023/11/28 06:11:52;;;;;;;7.97;2.15;;;;;;;;;;5046047;28;20057;-47
2023/11/28 06:14:20;;;;;;;4.20;1.60;;;;;;;;;;5045554;28;20240;-46
2023/11/28 06:16:47;;;;;;;3.95;1.77;;;;;;;;;;5045970;28;20030;-41
2023/11/28 06:19:13;;;;;;;3.83;1.77;;;;;;;;;;5045602;28;20017;-42
2023/11/28 06:21:40;;;;;;;3.95;2.20;;;;;;;;;;5046027;28;20025;-43
2023/11/28 06:24:07;;;;;;;3.88;1.67;;;;;;;;;;5045501;28;20249;-46
2023/11/28 06:26:33;;;;;;;6.25;1.83;;;;;;;;;;5045890;28;20025;-42
2023/11/28 06:29:00;;;;;;;4.93;1.80;;;;;;;;;;5045355;28;20021;-45
2023/11/28 06:31:27;;;;;;;4.65;1.70;;;;;;;;;;5045737;28;20037;-43
2023/11/28 06:33:54;;;;;;;3.30;1.65;;;;;;;;;;5045253;28;20029;-45
2023/11/28 06:36:21;;;;;;;4.55;1.92;;;;;;;;;;5045554;28;20085;-41
2023/11/28 06:38:48;;;;;;;6.55;2.00;;;;;;;;;;5045176;28;20029;-47
2023/11/28 06:41:15;;;;;;;2.35;1.70;;;;;;;;;;5045414;28;20096;-44
2023/11/28 06:43:42;;;;;;;6.30;1.83;;;;;;;;;;5045032;28;20214;-45
2023/11/28 06:46:09;;;;;;;3.42;1.75;;;;;;;;;;5045516;28;20053;-47
2023/11/28 06:48:37;;;;;;;6.18;1.60;;;;;;;;;;5045322;28;20082;-43
2023/11/28 06:51:04;;;;;;;5.47;1.70;;;;;;;;;;5044777;28;20026;-41
2023/11/28 06:53:31;;;;;;;6.00;1.50;;;;;;;;;;5045167;28;20040;-47
2023/11/28 06:55:58;;;;;;;3.25;1.67;;;;;;;;;;5044988;28;20301;-48
2023/11/28 06:58:25;;;;;;;3.03;1.30;;;;;;;;;;5036503;28;20025;-42
2023/11/28 07:00:51;;;;;;;5.38;1.88;;;;;;;;;;5044774;28;20120;-43
2023/11/28 07:03:18;;;;;;;2.70;1.48;;;;;;;;;;5050746;28;20040;-44
2023/11/28 07:05:45;;;;;;;4.88;1.50;;;;;;;;;;5063461;28;20251;-42
2023/11/28 07:08:11;;;;;;;3.47;1.50;;;;;;;;;;5063713;28;20075;-43
2023/11/28 07:10:38;;;;;;;4.60;1.63;;;;;;;;;;5064708;28;20037;-47
2023/11/28 07:13:05;;;;;;;15.57;1.77;;;;;;;;;;5064555;28;20103;-46
2023/11/28 07:15:31;;;;;;;3.90;1.63;;;;;;;;;;5064523;28;20037;-51
2023/11/28 07:18:00;;;;;;;11.25;1.67;;;;;;;;;;5064561;28;20088;-43
2023/11/28 07:20:28;;;;;;;4.40;1.35;;;;;;;;;;5064575;28;20431;-45
2023/11/28 07:22:55;;;;;;;6.30;1.65;;;;;;;;;;5064217;28;20047;-47
2023/11/28 07:25:23;;;;;;;4.40;1.70;;;;;;;;;;5064304;28;20029;-50
2023/11/28 07:27:50;;;;;;;5.28;1.50;;;;;;;;;;5064179;28;20021;-47
2023/11/28 07:30:16;;;;;;;4.72;1.50;;;;;;;;;;5064288;28;20052;-43
2023/11/28 07:32:43;;;;;;;4.03;1.60;;;;;;;;;;5064350;28;20024;-44
2023/11/28 07:35:10;;;;;;;5.15;1.50;;;;;;;;;;5064211;28;20248;-46
2023/11/28 07:37:38;;;;;;;6.28;1.70;;;;;;;;;;5063832;28;20082;-43
2023/11/28 07:40:08;;;;;;;4.45;1.40;;;;;;;;;;5063973;28;20367;-47
2023/11/28 07:42:35;;;;;;;5.45;1.63;;;;;;;;;;5063730;28;20232;-43
2023/11/28 07:45:02;;;;;;;6.03;1.65;;;;;;;;;;5063870;28;20028;-41
2023/11/28 07:47:28;;;;;;;6.22;1.73;;;;;;;;;;5064023;28;20359;-41
2023/11/28 07:49:55;;;;;;;4.18;1.50;;;;;;;;;;5063744;28;20025;-46
2023/11/28 07:52:22;;;;;;;4.50;1.58;;;;;;;;;;5063816;28;20052;-42
2023/11/28 07:54:49;;;;;;;2.33;1.50;;;;;;;;;;5063936;28;20044;-41
2023/11/28 07:57:15;;;;;;;8.30;1.73;;;;;;;;;;5064262;28;20017;-43
2023/11/28 07:59:46;;;;;;;15.18;2.00;;;;;;;;;;5063642;28;20044;-41
2023/11/28 08:02:15;;;;;;;13.02;1.73;;;;;;;;;;5064181;28;20328;-41
2023/11/28 08:04:42;;;;;;;5.63;1.83;;;;;;;;;;5063564;28;20051;-44
2023/11/28 08:07:09;;;;;;;4.80;1.40;;;;;;;;;;5064152;28;20092;-43
2023/11/28 08:09:36;;;;;;;3.55;1.63;;;;;;;;;;5063582;28;20070;-42
2023/11/28 08:12:03;;;;;;;4.60;1.30;;;;;;;;;;5064043;28;20021;-51
2023/11/28 08:14:30;;;;;;;13.88;1.83;;;;;;;;;;5063794;28;20025;-40
2023/11/28 08:16:56;;;;;;;8.25;2.05;;;;;;;;;;5064158;28;20075;-44
2023/11/28 08:19:23;;;;;;;3.03;1.55;;;;;;;;;;5066226;28;20308;-48
2023/11/28 08:21:50;;;;;;;5.53;1.58;;;;;;;;;;5083645;28;20417;-43
2023/11/28 08:24:17;;;;;;;2.17;1.10;;;;;;;;;;5067755;28;20263;-44
2023/11/28 08:26:43;;;;;;;4.60;1.50;;;;;;;;;;5068141;28;20025;-43
2023/11/28 08:29:10;;;;;;;3.13;1.30;;;;;;;;;;5067564;28;20032;-44
2023/11/28 08:31:37;;;;;;;3.67;1.27;;;;;;;;;;5067938;28;20025;-43
2023/11/28 08:34:04;;;;;;;4.20;1.40;;;;;;;;;;5067556;28;20067;-42
2023/11/28 08:36:31;;;;;;;3.83;1.40;;;;;;;;;;5067366;28;20028;-45
2023/11/28 08:38:57;;;;;;;2.95;1.60;;;;;;;;;;5067478;28;20058;-43
2023/11/28 08:41:24;;;;;;;4.72;1.70;;;;;;;;;;5067798;28;20020;-42
2023/11/28 08:43:51;;;;;;;3.38;1.70;;;;;;;;;;5067284;28;20029;-43
2023/11/28 08:46:18;;;;;;;6.10;1.42;;;;;;;;;;5067527;28;20071;-44
2023/11/28 08:48:45;;;;;;;4.38;1.80;;;;;;;;;;5067291;28;20024;-43
2023/11/28 08:51:12;;;;;;;2.78;1.50;;;;;;;;;;5067132;28;20269;-48
2023/11/28 08:53:38;;;;;;;2.40;1.60;;;;;;;;;;5067303;28;20020;-42
2023/11/28 08:56:05;;;;;;;4.63;1.90;;;;;;;;;;5067419;28;20024;-46
2023/11/28 08:58:32;;;;;;;4.53;1.70;;;;;;;;;;5066970;28;20032;-42
2023/11/28 09:00:59;;;;;;;5.13;1.60;;;;;;;;;;5067070;28;20080;-58
2023/11/28 09:03:25;;;;;;;8.35;1.98;;;;;;;;;;5067083;28;20076;-42
2023/11/28 09:05:52;;;;;;;7.05;1.90;;;;;;;;;;5066990;28;20415;-46
2023/11/28 09:08:19;;;;;;;4.07;1.90;;;;;;;;;;5066982;28;20146;-42
2023/11/28 09:10:45;;;;;;;3.47;1.90;;;;;;;;;;5066923;28;20032;-43
2023/11/28 09:13:12;;;;;;;5.13;1.70;;;;;;;;;;5066742;28;20025;-42
2023/11/28 09:15:39;;;;;;;9.40;2.10;;;;;;;;;;5066861;28;20212;-47
2023/11/28 09:18:06;;;;;;;3.53;2.00;;;;;;;;;;5066816;28;20312;-43
2023/11/28 09:20:32;;;;;;;5.03;1.98;;;;;;;;;;5066628;28;20037;-42
2023/11/28 09:22:59;;;;;;;3.25;1.40;;;;;;;;;;5066675;28;20088;-43
2023/11/28 09:25:26;;;;;;;3.92;1.77;;;;;;;;;;5066741;28;20080;-42
2023/11/28 09:27:53;;;;;;;2.60;1.90;;;;;;;;;;5066234;28;20096;-44
2023/11/28 09:30:20;;;;;;;4.43;2.10;;;;;;;;;;5081390;28;20029;-43
2023/11/28 09:32:48;;;;;;;4.10;2.00;;;;;;;;;;5086362;28;20024;-42
2023/11/28 09:35:14;;;;;;;3.63;1.98;;;;;;;;;;5086299;28;20370;-43
2023/11/28 09:37:41;;;;;;;3.45;2.00;;;;;;;;;;5086502;28;20336;-52
2023/11/28 09:40:08;;;;;;;5.18;2.30;;;;;;;;;;5086191;28;20024;-46
2023/11/28 09:42:37;;;;;;;3.25;1.85;;;;;;;;;;5085854;28;20028;-51
2023/11/28 09:45:06;;;;;;;4.05;2.15;;;;;;;;;;5086187;28;20020;-49
2023/11/28 09:47:36;;;;;;;3.90;2.13;;;;;;;;;;5086298;28;20235;-46
2023/11/28 09:50:05;;;;;;;3.28;2.13;;;;;;;;;;5085850;28;20027;-42
2023/11/28 09:52:36;;;;;;;5.22;2.03;;;;;;;;;;5085812;28;20084;-44
2023/11/28 09:55:03;;;;;;;4.57;2.40;;;;;;;;;;5086101;28;20308;-43
2023/11/28 09:57:33;;;;;;;3.67;1.73;;;;;;;;;;5085767;28;20021;-43
2023/11/28 10:00:00;;;;;;;6.85;2.30;;;;;;;;;;5085885;28;20067;-44
2023/11/28 10:02:28;;;;;;;5.20;2.20;;;;;;;;;;5086035;28;20091;-47
2023/11/28 10:04:57;;;;;;;3.42;2.00;;;;;;;;;;5085741;28;20028;-41
2023/11/28 10:07:27;;;;;;;3.05;2.17;;;;;;;;;;5077583;28;20028;-42
2023/11/28 10:09:59;;;;;;;5.80;2.10;;;;;;;;;;5085686;28;20031;-44
2023/11/28 10:12:25;;;;;;;10.60;2.20;;;;;;;;;;5085734;28;20055;-44
2023/11/28 10:14:52;;;;;;;3.35;2.00;;;;;;;;;;5085831;28;20331;-48
2023/11/28 10:17:20;;;;;;;4.70;2.40;;;;;;;;;;5086060;28;20039;-44
2023/11/28 10:19:47;;;;;;;5.70;2.38;;;;;;;;;;5085658;28;20032;-44
2023/11/28 10:22:14;;;;;;;6.18;2.10;;;;;;;;;;5084629;28;20260;-42
2023/11/28 10:24:41;;;;;;;5.50;1.98;;;;;;;;;;5083692;28;20065;-44
2023/11/28 10:27:07;;;;;;;2.90;2.10;;;;;;;;;;5073182;28;20094;-48
2023/11/28 10:29:34;;;;;;;11.23;2.30;;;;;;;;;;5072307;28;20088;-49
2023/11/28 10:32:01;;;;;;;15.93;2.45;;;;;;;;;;5057398;28;20084;-48
2023/11/28 10:34:31;;;;;;;6.10;2.45;;;;;;;;;;5065486;28;20088;-42
2023/11/28 10:36:58;;;;;;;6.45;2.15;;;;;;;;;;5057479;28;20047;-49
2023/11/28 10:39:27;;;;;;;3.78;2.00;;;;;;;;;;5065198;28;20023;-46
2023/11/28 10:41:54;;;;;;;4.90;2.15;;;;;;;;;;5057115;28;20312;-42
2023/11/28 10:44:21;;;;;;;4.93;2.10;;;;;;;;;;5066039;28;20208;-49
2023/11/28 10:46:48;;;;;;;3.72;2.15;;;;;;;;;;5059106;28;20021;-48
2023/11/28 10:49:15;;;;;;;4.32;2.10;;;;;;;;;;5065135;28;20037;-48
2023/11/28 10:51:42;;;;;;;5.95;1.92;;;;;;;;;;5057111;28;20025;-49
2023/11/28 10:54:11;;;;;;;5.95;2.30;;;;;;;;;;5064889;28;20017;-48
2023/11/28 10:56:47;;;;;;;6.03;2.47;;;;;;;;;;5056982;28;20029;-49
2023/11/28 10:59:24;;;;;;;3.47;1.98;;;;;;;;;;5081684;28;20032;-48
2023/11/28 11:01:51;;;;;;;4.55;2.20;;;;;;;;;;5071797;28;20040;-50
2023/11/28 11:04:18;;;;;;;4.43;2.28;;;;;;;;;;5063502;28;20334;-51
2023/11/28 11:06:44;;;;;;;5.07;2.63;;;;;;;;;;5054222;28;20032;-41
2023/11/28 11:09:11;;;;;;;6.38;2.55;;;;;;;;;;5049799;28;20225;-43
2023/11/28 11:11:39;;;;;;;8.15;2.50;;;;;;;;;;5079387;28;20025;-43
2023/11/28 11:14:13;;;;;;;7.55;2.83;;;;;;;;;;5084502;28;20190;-48
2023/11/28 11:16:44;;;;;;;11.57;3.20;;;;;;;;;;5083847;28;20040;-42
2023/11/28 11:19:11;;;;;;;6.68;2.90;;;;;;;;;;5084484;28;20067;-40
2023/11/28 11:21:58;;;;;;;8.02;3.15;;;;;;;;;;5084783;28;20052;-45
2023/11/28 11:24:26;;;;;;;8.02;3.25;;;;;;;;;;5081149;28;20040;-46
2023/11/28 11:26:54;;;;;;;5.72;3.10;;;;;;;;;;5069795;28;20080;-41
2023/11/28 11:29:21;;;;;;;7.22;2.88;;;;;;;;;;5053099;28;20025;-43
2023/11/28 11:31:49;;;;;;;9.10;3.78;;;;;;;;;;5051398;28;20044;-45
2023/11/28 11:34:34;;;;;;;7.63;3.65;;;;;;;;;;5063668;28;20325;-55
2023/11/28 11:37:07;;;;;;;8.32;3.47;;;;;;;;;;5063601;28;20045;-53
2023/11/28 11:39:35;;;;;;;6.00;3.15;;;;;;;;;;5062747;28;20033;-54
2023/11/28 11:42:03;;;;;;;6.93;3.72;;;;;;;;;;5064390;28;20095;-57
2023/11/28 11:44:30;;;;;;;6.40;3.55;;;;;;;;;;5064025;28;20020;-54
2023/11/28 11:47:02;;;;;;;8.65;3.42;;;;;;;;;;5062514;28;20083;-54
2023/11/28 11:49:29;;;;;;;6.47;3.45;;;;;;;;;;5062209;28;20029;-56
2023/11/28 11:51:56;;;;;;;8.10;3.70;;;;;;;;;;5062054;28;20056;-53
2023/11/28 11:54:23;;;;;;;6.20;3.70;;;;;;;;;;5061485;28;20017;-55
2023/11/28 11:56:50;;;;;;;7.00;3.40;;;;;;;;;;5062782;28;20043;-56
2023/11/28 11:59:16;;;;;;;5.72;3.00;;;;;;;;;;5062372;28;20033;-55
2023/11/28 12:01:50;;;;;;;7.13;3.13;;;;;;;;;;5063793;28;20029;-54
2023/11/28 12:04:17;;;;;;;5.10;3.47;;;;;;;;;;5063808;28;20031;-55
2023/11/28 12:06:43;;;;;;;9.23;3.55;;;;;;;;;;5063997;28;20040;-53
2023/11/28 12:09:10;;;;;;;8.95;3.53;;;;;;;;;;5063903;28;20028;-54
2023/11/28 12:11:37;;;;;;;6.38;3.63;;;;;;;;;;5064139;28;20036;-53
2023/11/28 12:14:04;;;;;;;7.55;3.78;;;;;;;;;;5064243;28;20080;-57
2023/11/28 12:16:31;;;;;;;6.38;3.90;;;;;;;;;;5064002;28;20040;-52
2023/11/28 12:18:58;;;;;;;7.82;4.20;;;;;;;;;;5063974;28;20249;-53
2023/11/28 12:21:25;;;;;;;7.03;4.05;;;;;;;;;;5063973;28;20040;-51
2023/11/28 12:23:51;;;;;;;9.10;3.92;;;;;;;;;;5063991;28;20024;-53
2023/11/28 12:26:18;;;;;;;8.90;4.65;;;;;;;;;;5063871;28;20104;-50
2023/11/28 12:28:45;;;;;;;7.25;4.20;;;;;;;;;;5063572;28;20035;-51
2023/11/28 12:31:11;;;;;;;7.72;4.40;;;;;;;;;;5063695;28;20092;-52
2023/11/28 12:33:38;;;;;;;7.55;4.55;;;;;;;;;;5063735;28;20029;-52
2023/11/28 12:36:06;;;;;;;7.38;4.30;;;;;;;;;;5063387;28;20063;-53
2023/11/28 12:38:32;;;;;;;10.35;4.53;;;;;;;;;;5063255;28;20021;-53
2023/11/28 12:41:01;;;;;;;6.85;3.83;;;;;;;;;;5063663;28;20040;-53
2023/11/28 12:43:28;;;;;;;6.97;3.90;;;;;;;;;;5063396;28;20079;-53
2023/11/28 12:45:58;;;;;;;7.40;4.13;;;;;;;;;;5063320;28;20092;-52
2023/11/28 12:48:24;;;;;;;5.25;3.70;;;;;;;;;;5078859;28;20032;-53
2023/11/28 12:50:54;;;;;;;8.55;4.05;;;;;;;;;;5063305;28;20344;-52
2023/11/28 12:53:23;;;;;;;6.68;4.07;;;;;;;;;;5078750;28;20347;-53
2023/11/28 12:55:50;;;;;;;10.23;3.88;;;;;;;;;;5063295;28;20029;-56
2023/11/28 12:58:18;;;;;;;6.82;3.65;;;;;;;;;;5063117;28;20044;-56
2023/11/28 13:00:45;;;;;;;7.00;3.47;;;;;;;;;;5063057;28;20064;-55
2023/11/28 13:03:12;;;;;;;6.72;3.47;;;;;;;;;;5063093;28;20032;-53
2023/11/28 13:05:39;;;;;;;5.47;3.53;;;;;;;;;;5065908;28;20084;-56
2023/11/28 13:08:07;;;;;;;6.78;3.25;;;;;;;;;;5066921;28;20313;-54
2023/11/28 13:10:35;;;;;;;7.35;3.60;;;;;;;;;;5066833;28;20320;-55
2023/11/28 13:13:02;;;;;;;4.95;3.35;;;;;;;;;;5066626;28;20313;-57
2023/11/28 13:15:31;;;;;;;4.85;3.15;;;;;;;;;;5082150;28;20033;-55
2023/11/28 13:17:58;;;;;;;7.93;3.38;;;;;;;;;;5066751;28;20024;-54
2023/11/28 13:20:27;;;;;;;8.68;3.92;;;;;;;;;;5066398;28;20025;-54
2023/11/28 13:22:54;;;;;;;11.05;3.38;;;;;;;;;;5066679;28;20020;-53
2023/11/28 13:25:20;;;;;;;6.65;3.10;;;;;;;;;;5066279;28;20057;-54
2023/11/28 13:27:47;;;;;;;5.82;3.10;;;;;;;;;;5066384;28;20025;-53
2023/11/28 13:30:16;;;;;;;5.07;3.30;;;;;;;;;;5066389;28;20079;-59
2023/11/28 13:32:43;;;;;;;13.02;3.60;;;;;;;;;;5066394;28;20049;-55
2023/11/28 13:35:11;;;;;;;11.10;3.97;;;;;;;;;;5066237;28;20288;-55
2023/11/28 13:37:38;;;;;;;7.80;3.67;;;;;;;;;;5066671;28;20027;-53
2023/11/28 13:40:11;;;;;;;6.82;3.10;;;;;;;;;;5066172;28;20037;-51
2023/11/28 13:42:38;;;;;;;6.15;3.45;;;;;;;;;;5066331;28;20033;-53
2023/11/28 13:45:07;;;;;;;5.85;3.50;;;;;;;;;;5066205;28;20120;-54
2023/11/28 13:47:34;;;;;;;8.77;3.22;;;;;;;;;;5066434;28;20236;-54
2023/11/28 13:50:08;;;;;;;6.30;3.25;;;;;;;;;;5065847;28;20032;-50
2023/11/28 13:52:38;;;;;;;7.38;2.80;;;;;;;;;;5066024;28;20032;-49
2023/11/28 13:55:05;;;;;;;4.63;2.80;;;;;;;;;;5065966;28;20025;-52
2023/11/28 13:57:32;;;;;;;3.72;2.72;;;;;;;;;;5065914;28;20021;-55
2023/11/28 13:59:59;;;;;;;3.67;2.63;;;;;;;;;;5080218;28;20108;-56
2023/11/28 14:02:27;;;;;;;3.05;2.33;;;;;;;;;;5064489;28;20021;-55
2023/11/28 14:04:54;;;;;;;3.67;2.80;;;;;;;;;;5063989;28;20076;-57
2023/11/28 14:07:22;;;;;;;6.03;3.20;;;;;;;;;;5064536;28;20136;-56
2023/11/28 14:09:48;;;;;;;5.07;2.85;;;;;;;;;;5063903;28;20088;-53
2023/11/28 14:12:15;;;;;;;5.32;3.15;;;;;;;;;;5079504;28;20194;-53
2023/11/28 14:14:42;;;;;;;5.88;3.00;;;;;;;;;;5064175;28;20024;-53
2023/11/28 14:17:09;;;;;;;4.78;2.70;;;;;;;;;;5065466;28;20190;-53
2023/11/28 14:19:36;;;;;;;3.58;2.80;;;;;;;;;;5065526;28;20024;-56
2023/11/28 14:22:03;;;;;;;3.92;2.55;;;;;;;;;;5065901;28;20025;-53
2023/11/28 14:24:30;;;;;;;4.50;2.50;;;;;;;;;;5065400;28;20345;-54
2023/11/28 14:26:56;;;;;;;4.93;2.90;;;;;;;;;;5065626;28;20075;-54
2023/11/28 14:29:24;;;;;;;5.93;2.97;;;;;;;;;;5065303;28;20017;-53
2023/11/28 14:31:51;;;;;;;4.97;3.05;;;;;;;;;;5065921;28;20036;-53
2023/11/28 14:34:17;;;;;;;14.32;3.17;;;;;;;;;;5065152;28;20068;-52
2023/11/28 14:36:45;;;;;;;12.98;3.40;;;;;;;;;;5065656;28;20335;-53
2023/11/28 14:39:12;;;;;;;16.33;3.38;;;;;;;;;;5065100;28;20033;-55
2023/11/28 14:41:38;;;;;;;8.27;3.00;;;;;;;;;;5065255;28;20037;-53